createdAt,value
2022-09-18T00:00:14.189Z,5.80
2022-09-18T00:05:16.631Z,5.75
2022-09-18T00:10:19.035Z,6.15
2022-09-18T00:15:21.398Z,5.95
2022-09-18T00:20:23.712Z,6.05
2022-09-18T00:25:26.073Z,6.78
2022-09-18T00:30:28.455Z,6.45
2022-09-18T00:35:30.790Z,6.07
2022-09-18T00:40:33.148Z,5.70
2022-09-18T00:45:35.524Z,6.15
2022-09-18T00:50:37.911Z,6.72
2022-09-18T00:55:42.683Z,6.50
2022-09-18T01:00:45.146Z,6.45
2022-09-18T01:05:56.476Z,5.95
2022-09-18T01:11:07.234Z,5.88
2022-09-18T01:16:35.049Z,6.85
2022-09-18T01:21:54.821Z,6.10
2022-09-18T01:27:04.126Z,5.18
2022-09-18T01:32:16.438Z,5.13
2022-09-18T01:37:35.821Z,6.40
2022-09-18T01:42:41.093Z,7.25
2022-09-18T01:47:53.392Z,5.05
2022-09-18T01:53:11.910Z,4.78
2022-09-18T01:58:20.970Z,4.70
2022-09-18T02:03:27.903Z,4.03
2022-09-18T02:08:55.368Z,5.03
2022-09-18T02:14:13.380Z,3.60
2022-09-18T02:19:55.162Z,3.53
2022-09-18T02:25:02.173Z,4.55
2022-09-18T02:30:06.387Z,4.30
2022-09-18T02:35:11.053Z,3.55
2022-09-18T02:40:31.628Z,4.00
2022-09-18T02:46:08.718Z,5.07
2022-09-18T02:51:28.818Z,4.72
2022-09-18T02:56:42.264Z,4.97
2022-09-18T03:01:45.197Z,5.20
2022-09-18T03:06:48.489Z,5.25
2022-09-18T03:11:51.093Z,5.82
2022-09-18T03:16:54.905Z,5.57
2022-09-18T03:21:57.498Z,5.53
2022-09-18T03:27:01.785Z,6.32
2022-09-18T03:32:05.220Z,7.22
2022-09-18T03:37:16.082Z,6.93
2022-09-18T03:42:19.992Z,6.20
2022-09-18T03:47:22.371Z,6.00
2022-09-18T03:52:24.773Z,5.30
2022-09-18T03:57:35.004Z,5.43
2022-09-18T04:02:53.873Z,6.53
2022-09-18T04:08:05.588Z,6.18
2022-09-18T04:13:31.205Z,6.22
2022-09-18T04:18:38.858Z,6.68
2022-09-18T04:23:42.233Z,6.45
2022-09-18T04:28:44.659Z,5.75
2022-09-18T04:33:47.546Z,6.03
2022-09-18T04:38:49.937Z,5.80
2022-09-18T04:43:52.307Z,6.55
2022-09-18T04:48:55.154Z,6.57
2022-09-18T04:54:01.044Z,6.90
2022-09-18T04:59:04.165Z,7.20
2022-09-18T05:04:08.306Z,7.65
2022-09-18T05:09:22.197Z,7.70
2022-09-18T05:14:24.598Z,8.00
2022-09-18T05:19:31.096Z,8.02
2022-09-18T05:24:45.215Z,8.55
2022-09-18T05:29:49.174Z,7.85
2022-09-18T05:34:56.336Z,7.57
2022-09-18T05:39:59.395Z,8.52
2022-09-18T05:45:02.364Z,7.80
2022-09-18T05:50:05.706Z,7.80
2022-09-18T05:55:09.164Z,9.32
2022-09-18T06:00:17.351Z,8.07
2022-09-18T06:05:22.888Z,7.38
2022-09-18T06:10:25.633Z,7.72
2022-09-18T06:15:29.051Z,8.05
2022-09-18T06:20:31.715Z,7.85
2022-09-18T06:25:37.117Z,9.55
2022-09-18T06:30:39.713Z,7.88
2022-09-18T06:35:42.761Z,8.05
2022-09-18T06:40:52.846Z,8.45
2022-09-18T06:46:00.542Z,9.23
2022-09-18T06:51:11.938Z,8.40
2022-09-18T06:56:36.175Z,8.30
2022-09-18T07:01:39.622Z,8.27
2022-09-18T07:07:02.330Z,9.43
2022-09-18T07:12:05.062Z,8.65
2022-09-18T07:17:18.702Z,8.57
2022-09-18T07:22:26.887Z,9.00
2022-09-18T07:27:30.181Z,8.82
2022-09-18T07:32:32.579Z,8.90
2022-09-18T07:37:35.015Z,8.38
2022-09-18T07:43:01.670Z,9.60
2022-09-18T07:48:06.524Z,8.98
2022-09-18T07:53:14.439Z,9.63
2022-09-18T07:58:17.474Z,9.25
2022-09-18T08:03:41.542Z,10.00
2022-09-18T08:08:49.016Z,8.95
2022-09-18T08:14:12.859Z,10.05
2022-09-18T08:19:18.561Z,9.30
2022-09-18T08:24:33.907Z,9.45
2022-09-18T08:29:36.296Z,9.50
2022-09-18T08:34:41.898Z,9.45
2022-09-18T08:39:46.788Z,10.10
2022-09-18T08:45:16.019Z,9.55
2022-09-18T08:50:26.489Z,9.63
2022-09-18T08:55:35.767Z,9.38
2022-09-18T09:00:51.051Z,9.57
2022-09-18T09:06:25.150Z,11.35
2022-09-18T09:11:30.939Z,12.20
2022-09-18T09:16:45.911Z,11.27
2022-09-18T09:21:56.212Z,12.77
2022-09-18T09:26:59.689Z,12.40
2022-09-18T09:32:30.285Z,13.27
2022-09-18T09:37:43.702Z,14.38
2022-09-18T09:43:13.912Z,13.45
2022-09-18T09:48:19.029Z,8.73
2022-09-18T09:53:24.508Z,11.32
2022-09-18T09:58:34.257Z,11.82
2022-09-18T10:04:02.213Z,12.07
2022-09-18T10:09:38.201Z,11.05
2022-09-18T10:14:42.400Z,12.15
2022-09-18T10:19:45.542Z,13.85
2022-09-18T10:24:49.551Z,11.85
2022-09-18T10:29:54.591Z,10.70
2022-09-18T10:35:29.896Z,10.23
2022-09-18T10:40:37.442Z,11.95
2022-09-18T10:45:42.136Z,12.55
2022-09-18T10:56:20.304Z,12.68
2022-09-18T11:01:26.287Z,13.70
2022-09-18T11:06:32.633Z,12.57
2022-09-18T11:11:46.230Z,13.63
2022-09-18T11:16:58.154Z,12.60
2022-09-18T11:22:04.221Z,11.15
2022-09-18T11:27:23.621Z,9.65
2022-09-18T11:32:31.926Z,10.60
2022-09-18T11:37:48.229Z,9.30
2022-09-18T11:42:53.362Z,9.48
2022-09-18T11:48:25.274Z,9.00
2022-09-18T11:53:40.833Z,8.02
2022-09-18T11:58:50.394Z,8.07
2022-09-18T12:04:08.085Z,7.00
2022-09-18T12:09:54.036Z,7.47
2022-09-18T12:15:05.977Z,6.93
2022-09-18T12:20:22.468Z,5.93
2022-09-18T12:25:49.572Z,6.22
2022-09-18T12:31:11.269Z,6.72
2022-09-18T12:36:45.992Z,6.28
2022-09-18T12:42:14.323Z,5.95
2022-09-18T12:47:28.321Z,6.07
2022-09-18T12:52:50.861Z,6.35
2022-09-18T12:58:17.771Z,5.57
2022-09-18T13:03:30.880Z,5.07
2022-09-18T13:08:44.768Z,5.97
2022-09-18T13:13:53.945Z,5.07
2022-09-18T13:19:02.748Z,4.78
2022-09-18T13:24:06.462Z,5.18
2022-09-18T13:29:46.342Z,3.83
2022-09-18T13:34:56.477Z,4.10
2022-09-18T13:40:10.104Z,4.00
2022-09-18T13:45:28.590Z,5.88
2022-09-18T13:50:36.383Z,4.53
2022-09-18T13:55:49.530Z,5.30
2022-09-18T14:00:52.639Z,5.15
2022-09-18T14:05:55.053Z,6.00
2022-09-18T14:11:16.369Z,5.72
2022-09-18T14:16:29.257Z,5.68
2022-09-18T14:21:34.377Z,5.72
2022-09-18T14:26:38.566Z,4.97
2022-09-18T14:31:53.491Z,2.17
2022-09-18T14:37:01.837Z,1.02
2022-09-18T14:42:14.214Z,1.77
2022-09-18T14:47:22.502Z,0.98
2022-09-18T14:52:31.632Z,0.98
2022-09-18T14:57:45.294Z,1.30
2022-09-18T15:02:52.681Z,1.92
2022-09-18T15:08:03.190Z,2.13
2022-09-18T15:13:07.856Z,2.13
2022-09-18T15:18:23.635Z,2.22
2022-09-18T15:23:30.051Z,2.38
2022-09-18T15:28:34.519Z,2.38
2022-09-18T15:33:39.306Z,2.25
2022-09-18T15:38:45.806Z,2.10
2022-09-18T15:43:50.431Z,2.13
2022-09-18T15:48:56.315Z,2.03
2022-09-18T15:54:25.020Z,1.40
2022-09-18T15:59:38.714Z,1.40
2022-09-18T16:04:41.117Z,2.22
2022-09-18T16:09:45.927Z,4.80
2022-09-18T16:15:10.313Z,1.95
2022-09-18T16:20:21.979Z,1.98
2022-09-18T16:25:28.343Z,2.03
2022-09-18T16:30:30.824Z,1.88
2022-09-18T16:35:33.140Z,2.10
2022-09-18T16:40:35.831Z,2.08
2022-09-18T16:45:38.222Z,2.20
2022-09-18T16:50:40.677Z,2.28
2022-09-18T16:55:47.046Z,2.00
2022-09-18T17:00:49.815Z,2.08
2022-09-18T17:05:52.219Z,1.73
2022-09-18T17:10:54.654Z,1.70
2022-09-18T17:16:01.137Z,2.58
2022-09-18T17:21:05.496Z,1.70
2022-09-18T17:26:10.056Z,1.83
2022-09-18T17:31:20.531Z,1.65
2022-09-18T17:36:23.320Z,1.70
2022-09-18T17:41:25.708Z,2.20
2022-09-18T17:46:28.506Z,2.63
2022-09-18T17:51:30.868Z,2.50
2022-09-18T17:56:34.011Z,2.75
2022-09-18T18:01:38.236Z,2.40
2022-09-18T18:06:40.981Z,2.50
2022-09-18T18:11:44.426Z,2.30
2022-09-18T18:16:49.811Z,1.70
2022-09-18T18:21:54.827Z,2.50
2022-09-18T18:26:57.721Z,3.03
2022-09-18T18:32:00.887Z,3.80
2022-09-18T18:37:05.529Z,3.35
2022-09-18T18:42:08.041Z,4.63
2022-09-18T18:47:10.403Z,3.88
2022-09-18T18:52:12.754Z,4.00
2022-09-18T18:57:15.321Z,3.15
2022-09-18T19:02:17.913Z,3.80
2022-09-18T19:07:20.457Z,3.53
2022-09-18T19:12:22.835Z,4.00
2022-09-18T19:17:26.976Z,4.10
2022-09-18T19:22:29.284Z,4.22
2022-09-18T19:27:31.853Z,4.13
2022-09-18T19:32:36.403Z,4.35
2022-09-18T19:37:38.763Z,4.32
2022-09-18T19:42:42.014Z,5.55
2022-09-18T19:47:47.114Z,4.55
2022-09-18T19:52:51.521Z,4.78
2022-09-18T19:57:56.547Z,4.65
2022-09-18T20:02:59.710Z,4.63
2022-09-18T20:08:02.258Z,4.70
2022-09-18T20:13:05.058Z,4.57
2022-09-18T20:18:08.042Z,4.38
2022-09-18T20:23:10.549Z,5.53
2022-09-18T20:28:13.105Z,5.07
2022-09-18T20:33:16.759Z,5.43
2022-09-18T20:38:19.518Z,6.07
2022-09-18T20:43:22.298Z,5.20
2022-09-18T20:48:27.285Z,4.75
2022-09-18T20:53:29.752Z,5.70
2022-09-18T20:58:34.142Z,4.57
2022-09-18T21:03:36.535Z,4.55
2022-09-18T21:08:43.041Z,3.92
2022-09-18T21:13:49.353Z,4.38
2022-09-18T21:18:53.582Z,4.35
2022-09-18T21:24:02.600Z,4.22
2022-09-18T21:29:13.752Z,4.20
2022-09-18T21:34:21.183Z,4.03
2022-09-18T21:39:23.977Z,3.83
2022-09-18T21:44:28.794Z,4.20
2022-09-18T21:49:32.076Z,4.60
2022-09-18T21:54:35.011Z,4.63
2022-09-18T21:59:37.788Z,4.65
2022-09-18T22:04:42.016Z,4.90
2022-09-18T22:09:44.253Z,4.30
2022-09-18T22:14:46.552Z,3.58
2022-09-18T22:19:49.335Z,3.63
2022-09-18T22:24:51.703Z,4.10
2022-09-18T22:29:54.042Z,3.63
2022-09-18T22:34:56.390Z,4.00
2022-09-18T22:39:58.916Z,3.78
2022-09-18T22:45:01.282Z,4.55
2022-09-18T22:50:04.629Z,4.60
2022-09-18T22:55:07.126Z,4.38
2022-09-18T23:00:13.565Z,4.45
2022-09-18T23:05:18.245Z,4.93
2022-09-18T23:10:22.166Z,4.57
2022-09-18T23:15:24.464Z,5.15
2022-09-18T23:20:26.838Z,4.50
2022-09-18T23:25:29.237Z,5.07
2022-09-18T23:30:31.647Z,5.13
2022-09-18T23:35:33.967Z,5.40
2022-09-18T23:40:36.889Z,4.90
2022-09-18T23:45:39.337Z,5.18
2022-09-18T23:50:43.278Z,4.60
2022-09-18T23:55:46.668Z,5.20
